createdAt,value
2018-09-09T00:00:49.894Z,15.80
2018-09-09T00:03:18.291Z,15.70
2018-09-09T00:05:46.730Z,15.70
2018-09-09T00:08:15.161Z,15.70
2018-09-09T00:10:43.700Z,15.60
2018-09-09T00:13:12.136Z,15.60
2018-09-09T00:15:40.536Z,15.60
2018-09-09T00:18:08.975Z,15.50
2018-09-09T00:20:37.456Z,15.50
2018-09-09T00:23:06.075Z,15.50
2018-09-09T00:25:34.484Z,15.50
2018-09-09T00:28:03.183Z,15.40
2018-09-09T00:30:32.936Z,15.40
2018-09-09T00:33:01.365Z,15.40
2018-09-09T00:35:29.777Z,15.40
2018-09-09T00:37:58.277Z,15.30
2018-09-09T00:40:26.749Z,15.30
2018-09-09T00:42:55.196Z,15.20
2018-09-09T00:45:23.628Z,15.20
2018-09-09T00:47:52.115Z,15.20
2018-09-09T00:50:25.867Z,15.20
2018-09-09T00:52:59.597Z,15.10
2018-09-09T00:55:28.129Z,15.10
2018-09-09T00:57:56.672Z,15.00
2018-09-09T01:00:30.558Z,15.00
2018-09-09T01:02:59.028Z,15.00
2018-09-09T01:05:28.679Z,14.90
2018-09-09T01:07:57.192Z,14.90
2018-09-09T01:10:25.613Z,14.80
2018-09-09T01:12:54.054Z,14.70
2018-09-09T01:15:22.601Z,14.60
2018-09-09T01:17:51.046Z,14.50
2018-09-09T01:20:19.430Z,14.50
2018-09-09T01:22:47.872Z,14.40
2018-09-09T01:25:16.923Z,14.40
2018-09-09T01:27:45.358Z,14.40
2018-09-09T01:30:13.833Z,14.40
2018-09-09T01:32:42.289Z,14.40
2018-09-09T01:35:10.728Z,14.30
2018-09-09T01:37:39.148Z,14.40
2018-09-09T01:40:07.609Z,14.40
2018-09-09T01:42:36.020Z,14.40
2018-09-09T01:45:04.444Z,14.40
2018-09-09T01:47:32.868Z,14.40
2018-09-09T01:50:01.558Z,14.40
2018-09-09T01:52:29.963Z,14.30
2018-09-09T01:54:58.345Z,14.30
2018-09-09T01:57:26.892Z,14.20
2018-09-09T01:59:55.292Z,14.20
2018-09-09T02:02:23.786Z,14.10
2018-09-09T02:04:52.189Z,14.10
2018-09-09T02:07:20.639Z,14.10
2018-09-09T02:09:49.174Z,14.10
2018-09-09T02:12:17.650Z,14.10
2018-09-09T02:14:46.108Z,14.10
2018-09-09T02:17:14.571Z,14.00
2018-09-09T02:19:42.978Z,14.00
2018-09-09T02:22:11.353Z,14.00
2018-09-09T02:24:40.747Z,14.00
2018-09-09T02:27:09.165Z,14.00
2018-09-09T02:29:37.683Z,14.00
2018-09-09T02:32:06.224Z,14.00
2018-09-09T02:34:35.696Z,14.00
2018-09-09T02:37:04.144Z,13.90
2018-09-09T02:39:32.649Z,13.90
2018-09-09T02:42:01.005Z,13.90
2018-09-09T02:44:29.418Z,14.00
2018-09-09T02:46:57.802Z,14.00
2018-09-09T02:49:26.317Z,14.00
2018-09-09T02:51:54.786Z,14.00
2018-09-09T02:54:23.220Z,13.90
2018-09-09T02:56:51.639Z,13.90
2018-09-09T02:59:20.251Z,13.90
2018-09-09T03:01:48.721Z,13.80
2018-09-09T03:04:17.195Z,13.80
2018-09-09T03:06:45.607Z,13.70
2018-09-09T03:09:14.044Z,13.60
2018-09-09T03:11:42.468Z,13.60
2018-09-09T03:14:10.912Z,13.50
2018-09-09T03:16:39.318Z,13.50
2018-09-09T03:19:07.728Z,13.50
2018-09-09T03:21:36.143Z,13.50
2018-09-09T03:24:04.587Z,13.50
2018-09-09T03:26:32.940Z,13.50
2018-09-09T03:29:01.354Z,13.40
2018-09-09T03:31:29.777Z,13.40
2018-09-09T03:33:58.592Z,13.40
2018-09-09T03:36:27.142Z,13.30
2018-09-09T03:38:56.232Z,13.40
2018-09-09T03:41:24.700Z,13.40
2018-09-09T03:43:53.050Z,13.40
2018-09-09T03:46:21.468Z,13.40
2018-09-09T03:48:49.853Z,13.40
2018-09-09T03:51:19.839Z,13.50
2018-09-09T03:53:48.355Z,13.40
2018-09-09T03:56:16.757Z,13.50
2018-09-09T03:58:45.128Z,13.40
2018-09-09T04:01:13.617Z,13.40
2018-09-09T04:03:42.082Z,13.30
2018-09-09T04:06:10.495Z,13.30
2018-09-09T04:08:39.053Z,13.30
2018-09-09T04:11:10.672Z,13.30
2018-09-09T04:13:40.975Z,13.30
2018-09-09T04:16:10.354Z,13.20
2018-09-09T04:18:38.960Z,13.20
2018-09-09T04:21:07.572Z,13.20
2018-09-09T04:23:36.067Z,13.10
2018-09-09T04:26:04.687Z,13.10
2018-09-09T04:28:33.149Z,13.10
2018-09-09T04:31:01.639Z,13.00
2018-09-09T04:33:29.981Z,12.90
2018-09-09T04:35:58.382Z,12.90
2018-09-09T04:38:26.831Z,12.80
2018-09-09T04:40:55.212Z,12.80
2018-09-09T04:43:23.605Z,12.80
2018-09-09T04:45:52.010Z,12.70
2018-09-09T04:48:20.524Z,12.70
2018-09-09T04:50:48.942Z,12.70
2018-09-09T04:53:17.386Z,12.70
2018-09-09T04:55:45.761Z,12.70
2018-09-09T04:58:14.213Z,12.70
2018-09-09T05:00:42.630Z,12.70
2018-09-09T05:03:11.005Z,12.70
2018-09-09T05:05:39.431Z,12.70
2018-09-09T05:08:08.653Z,12.60
2018-09-09T05:10:37.068Z,12.60
2018-09-09T05:13:05.525Z,12.60
2018-09-09T05:15:33.888Z,12.60
2018-09-09T05:18:02.573Z,12.60
2018-09-09T05:20:30.933Z,12.60
2018-09-09T05:23:00.994Z,12.60
2018-09-09T05:25:29.764Z,12.60
2018-09-09T05:27:58.193Z,12.60
2018-09-09T05:30:26.574Z,12.60
2018-09-09T05:32:55.063Z,12.60
2018-09-09T05:35:23.423Z,12.70
2018-09-09T05:37:52.116Z,12.70
2018-09-09T05:40:20.834Z,12.80
2018-09-09T05:42:49.459Z,12.90
2018-09-09T05:45:18.827Z,13.10
2018-09-09T05:47:47.236Z,13.20
2018-09-09T05:50:15.754Z,13.30
2018-09-09T05:52:44.067Z,13.30
2018-09-09T05:55:12.518Z,13.30
2018-09-09T05:57:40.899Z,13.30
2018-09-09T06:00:09.296Z,13.30
2018-09-09T06:02:37.805Z,13.30
2018-09-09T06:05:06.264Z,13.30
2018-09-09T06:07:34.700Z,13.30
2018-09-09T06:10:03.224Z,13.40
2018-09-09T06:12:31.686Z,13.50
2018-09-09T06:15:00.132Z,13.60
2018-09-09T06:17:29.505Z,13.70
2018-09-09T06:19:57.893Z,13.80
2018-09-09T06:22:26.323Z,13.90
2018-09-09T06:24:54.836Z,13.90
2018-09-09T06:27:23.215Z,14.00
2018-09-09T06:29:51.588Z,14.10
2018-09-09T06:32:20.008Z,14.20
2018-09-09T06:34:49.637Z,14.40
2018-09-09T06:37:17.998Z,14.50
2018-09-09T06:39:46.469Z,14.70
2018-09-09T06:42:14.944Z,14.80
2018-09-09T06:44:43.434Z,15.00
2018-09-09T06:47:11.840Z,15.10
2018-09-09T06:49:40.230Z,15.10
2018-09-09T06:52:08.703Z,15.20
2018-09-09T06:54:37.153Z,15.30
2018-09-09T06:57:12.100Z,15.50
2018-09-09T06:59:41.027Z,15.50
2018-09-09T07:02:10.861Z,15.50
2018-09-09T07:04:39.269Z,15.50
2018-09-09T07:07:07.877Z,15.60
2018-09-09T07:09:36.409Z,15.60
2018-09-09T07:12:04.873Z,15.70
2018-09-09T07:14:34.661Z,15.70
2018-09-09T07:17:03.125Z,15.80
2018-09-09T07:19:32.734Z,15.90
2018-09-09T07:22:01.201Z,15.90
2018-09-09T07:24:29.636Z,15.90
2018-09-09T07:26:59.070Z,15.90
2018-09-09T07:29:27.550Z,15.90
2018-09-09T07:31:56.083Z,15.90
2018-09-09T07:34:24.531Z,15.90
2018-09-09T07:36:52.897Z,15.90
2018-09-09T07:39:22.285Z,15.90
2018-09-09T07:41:50.839Z,15.90
2018-09-09T07:44:19.257Z,15.90
2018-09-09T07:46:48.098Z,16.00
2018-09-09T07:49:16.456Z,16.20
2018-09-09T07:51:45.050Z,16.40
2018-09-09T07:54:13.488Z,16.80
2018-09-09T07:56:41.962Z,17.00
2018-09-09T07:59:10.461Z,17.20
2018-09-09T08:01:38.927Z,17.30
2018-09-09T08:04:07.428Z,17.40
2018-09-09T08:06:35.876Z,17.50
2018-09-09T08:09:06.278Z,17.60
2018-09-09T08:11:36.941Z,17.60
2018-09-09T08:14:06.635Z,17.70
2018-09-09T08:16:35.648Z,17.80
2018-09-09T08:19:05.322Z,17.80
2018-09-09T08:21:37.338Z,17.90
2018-09-09T08:24:08.168Z,18.00
2018-09-09T08:26:37.693Z,18.00
2018-09-09T08:29:06.284Z,18.20
2018-09-09T08:31:35.357Z,18.40
2018-09-09T08:34:03.912Z,18.70
2018-09-09T08:36:32.380Z,19.00
2018-09-09T08:39:00.772Z,19.30
2018-09-09T08:41:29.175Z,19.60
2018-09-09T08:43:59.151Z,19.70
2018-09-09T08:46:27.688Z,19.80
2018-09-09T08:48:56.142Z,19.80
2018-09-09T08:51:24.525Z,19.80
2018-09-09T08:53:52.932Z,19.70
2018-09-09T08:56:21.320Z,19.60
2018-09-09T08:58:50.253Z,19.70
2018-09-09T09:01:18.692Z,19.80
2018-09-09T09:03:47.155Z,20.00
2018-09-09T09:06:15.578Z,20.20
2018-09-09T09:08:43.994Z,20.30
2018-09-09T09:11:12.407Z,20.50
2018-09-09T09:13:40.809Z,20.50
2018-09-09T09:16:09.190Z,20.70
2018-09-09T09:18:37.655Z,21.00
2018-09-09T09:21:06.142Z,21.20
2018-09-09T09:23:34.698Z,21.50
2018-09-09T09:26:03.040Z,21.60
2018-09-09T09:28:32.019Z,21.50
2018-09-09T09:31:00.421Z,21.60
2018-09-09T09:33:28.829Z,21.80
2018-09-09T09:35:57.332Z,22.00
2018-09-09T09:38:25.771Z,22.20
2018-09-09T09:40:54.197Z,22.50
2018-09-09T09:43:22.584Z,23.00
2018-09-09T09:45:51.028Z,23.20
2018-09-09T09:48:19.525Z,23.60
2018-09-09T09:50:48.032Z,23.90
2018-09-09T09:53:16.880Z,23.90
2018-09-09T09:55:45.303Z,23.80
2018-09-09T09:58:14.241Z,23.60
2018-09-09T10:00:49.486Z,23.50
2018-09-09T10:03:17.977Z,23.30
2018-09-09T10:05:46.452Z,23.30
2018-09-09T10:08:14.927Z,23.30
2018-09-09T10:10:43.720Z,23.40
2018-09-09T10:13:12.292Z,23.40
2018-09-09T10:15:40.704Z,23.40
2018-09-09T10:18:09.262Z,23.40
2018-09-09T10:20:37.682Z,23.40
2018-09-09T10:23:06.675Z,23.40
2018-09-09T10:25:35.312Z,23.40
2018-09-09T10:28:06.792Z,23.50
2018-09-09T10:30:35.257Z,23.50
2018-09-09T10:33:05.743Z,23.50
2018-09-09T10:35:40.830Z,23.50
2018-09-09T10:38:09.267Z,23.50
2018-09-09T10:40:37.645Z,23.50
2018-09-09T10:43:06.115Z,23.40
2018-09-09T10:45:34.512Z,23.30
2018-09-09T10:48:02.922Z,23.40
2018-09-09T10:50:31.415Z,23.50
2018-09-09T10:53:03.483Z,23.70
2018-09-09T10:55:32.056Z,23.80
2018-09-09T10:58:00.497Z,24.10
2018-09-09T11:00:28.881Z,24.50
2018-09-09T11:02:57.832Z,25.00
2018-09-09T11:05:27.184Z,25.30
2018-09-09T11:07:55.600Z,25.70
2018-09-09T11:10:23.976Z,26.10
2018-09-09T11:12:52.436Z,26.50
2018-09-09T11:15:20.893Z,26.40
2018-09-09T11:17:49.309Z,26.50
2018-09-09T11:20:17.750Z,26.60
2018-09-09T11:22:47.242Z,26.50
2018-09-09T11:25:16.092Z,26.90
2018-09-09T11:27:44.465Z,27.20
2018-09-09T11:30:12.889Z,27.50
2018-09-09T11:32:41.368Z,27.50
2018-09-09T11:35:09.761Z,27.50
2018-09-09T11:37:38.138Z,27.50
2018-09-09T11:40:07.603Z,28.80
2018-09-09T11:42:36.284Z,30.50
2018-09-09T11:45:06.819Z,31.00
2018-09-09T11:47:37.352Z,31.70
2018-09-09T11:50:07.531Z,33.00
2018-09-09T11:52:38.142Z,33.50
2018-09-09T11:55:09.254Z,33.70
2018-09-09T11:57:40.452Z,34.20
2018-09-09T12:00:09.765Z,35.60
2018-09-09T12:02:39.446Z,37.50
2018-09-09T12:05:09.140Z,38.20
2018-09-09T12:07:38.426Z,38.90
2018-09-09T12:10:06.902Z,39.60
2018-09-09T12:12:35.289Z,39.30
2018-09-09T12:15:04.064Z,39.40
2018-09-09T12:17:32.494Z,39.80
2018-09-09T12:20:00.961Z,40.20
2018-09-09T12:22:29.522Z,40.60
2018-09-09T12:24:58.824Z,41.10
2018-09-09T12:27:27.353Z,41.40
2018-09-09T12:29:55.842Z,41.30
2018-09-09T12:32:24.469Z,41.10
2018-09-09T12:34:52.762Z,41.50
2018-09-09T12:37:21.196Z,42.00
2018-09-09T12:39:49.870Z,42.50
2018-09-09T12:42:18.432Z,41.70
2018-09-09T12:44:52.080Z,40.70
2018-09-09T12:47:25.882Z,40.90
2018-09-09T12:49:54.294Z,41.10
2018-09-09T12:52:23.162Z,41.40
2018-09-09T12:54:51.602Z,41.70
2018-09-09T12:57:20.144Z,41.20
2018-09-09T12:59:48.823Z,40.30
2018-09-09T13:02:19.139Z,38.70
2018-09-09T13:04:47.729Z,36.90
2018-09-09T13:07:16.140Z,35.10
2018-09-09T13:09:44.615Z,33.90
2018-09-09T13:12:13.630Z,33.20
2018-09-09T13:14:42.172Z,32.30
2018-09-09T13:17:10.664Z,31.50
2018-09-09T13:19:39.166Z,30.60
2018-09-09T13:22:07.680Z,30.40
2018-09-09T13:24:36.088Z,30.10
2018-09-09T13:27:04.590Z,29.90
2018-09-09T13:29:33.038Z,29.80
2018-09-09T13:32:01.503Z,29.90
2018-09-09T13:34:30.280Z,30.10
2018-09-09T13:36:58.743Z,30.20
2018-09-09T13:39:27.338Z,30.00
2018-09-09T13:41:55.822Z,29.60
2018-09-09T13:44:24.384Z,29.40
2018-09-09T13:46:52.908Z,29.40
2018-09-09T13:49:21.429Z,30.00
2018-09-09T13:51:49.945Z,30.10
2018-09-09T13:54:18.516Z,29.80
2018-09-09T13:56:48.476Z,29.30
2018-09-09T13:59:18.981Z,29.10
2018-09-09T14:01:47.691Z,28.90
2018-09-09T14:04:16.293Z,28.70
2018-09-09T14:06:46.654Z,28.60
2018-09-09T14:09:15.096Z,28.60
2018-09-09T14:11:43.495Z,28.40
2018-09-09T14:14:12.003Z,28.20
2018-09-09T14:16:40.401Z,28.10
2018-09-09T14:19:08.811Z,28.30
2018-09-09T14:21:37.320Z,28.40
2018-09-09T14:24:05.895Z,28.40
2018-09-09T14:26:34.330Z,28.10
2018-09-09T14:29:02.709Z,28.10
2018-09-09T14:31:31.600Z,28.10
2018-09-09T14:33:59.999Z,27.90
2018-09-09T14:36:28.446Z,27.90
2018-09-09T14:38:56.911Z,27.80
2018-09-09T14:41:25.852Z,27.90
2018-09-09T14:43:54.295Z,28.10
2018-09-09T14:46:22.777Z,28.50
2018-09-09T14:48:51.236Z,29.00
2018-09-09T14:51:19.921Z,29.40
2018-09-09T14:53:48.428Z,30.10
2018-09-09T14:56:16.956Z,30.70
2018-09-09T14:58:46.061Z,30.60
2018-09-09T15:01:14.596Z,30.10
2018-09-09T15:03:46.276Z,29.50
2018-09-09T15:06:15.199Z,29.10
2018-09-09T15:08:43.610Z,28.80
2018-09-09T15:11:12.012Z,28.40
2018-09-09T15:13:40.637Z,28.20
2018-09-09T15:16:09.086Z,28.10
2018-09-09T15:18:37.665Z,28.50
2018-09-09T15:21:06.180Z,28.70
2018-09-09T15:23:34.926Z,28.70
2018-09-09T15:26:03.453Z,28.50
2018-09-09T15:28:32.086Z,28.60
2018-09-09T15:31:00.772Z,28.90
2018-09-09T15:33:29.496Z,29.10
2018-09-09T15:35:58.308Z,29.10
2018-09-09T15:38:26.791Z,28.90
2018-09-09T15:40:55.449Z,28.50
2018-09-09T15:43:23.998Z,28.00
2018-09-09T15:45:52.494Z,27.50
2018-09-09T15:48:21.922Z,27.10
2018-09-09T15:50:50.927Z,26.80
2018-09-09T15:53:22.079Z,26.60
2018-09-09T15:55:50.693Z,26.50
2018-09-09T15:58:20.074Z,26.30
2018-09-09T16:00:49.086Z,26.20
2018-09-09T16:03:17.486Z,26.20
2018-09-09T16:05:46.476Z,26.00
2018-09-09T16:08:14.962Z,25.90
2018-09-09T16:10:43.671Z,25.80
2018-09-09T16:13:12.143Z,25.70
2018-09-09T16:15:40.907Z,25.60
2018-09-09T16:18:09.460Z,25.60
2018-09-09T16:20:37.932Z,25.50
2018-09-09T16:23:06.832Z,25.40
2018-09-09T16:25:42.333Z,25.40
2018-09-09T16:28:11.711Z,25.30
2018-09-09T16:30:40.818Z,25.40
2018-09-09T16:33:10.660Z,25.60
2018-09-09T16:35:39.800Z,25.80
2018-09-09T16:38:14.289Z,26.00
2018-09-09T16:40:48.381Z,26.00
2018-09-09T16:43:16.899Z,25.90
2018-09-09T16:45:46.043Z,25.70
2018-09-09T16:48:15.212Z,25.50
2018-09-09T16:50:44.684Z,25.20
2018-09-09T16:53:13.175Z,25.00
2018-09-09T16:55:42.059Z,24.70
2018-09-09T16:58:12.357Z,24.50
2018-09-09T17:00:40.783Z,24.30
2018-09-09T17:03:09.199Z,24.10
2018-09-09T17:05:38.424Z,24.00
2018-09-09T17:08:06.867Z,23.80
2018-09-09T17:10:35.387Z,23.70
2018-09-09T17:13:06.188Z,23.50
2018-09-09T17:15:34.697Z,23.40
2018-09-09T17:18:03.129Z,23.20
2018-09-09T17:20:31.648Z,23.10
2018-09-09T17:23:00.077Z,22.90
2018-09-09T17:25:29.377Z,22.80
2018-09-09T17:27:58.471Z,22.70
2018-09-09T17:30:27.107Z,22.60
2018-09-09T17:32:55.602Z,22.50
2018-09-09T17:35:24.116Z,22.40
2018-09-09T17:37:52.693Z,22.40
2018-09-09T17:40:21.209Z,22.30
2018-09-09T17:42:49.670Z,22.30
2018-09-09T17:45:18.082Z,22.20
2018-09-09T17:47:46.485Z,22.10
2018-09-09T17:50:16.129Z,22.00
2018-09-09T17:52:44.688Z,21.90
2018-09-09T17:55:13.941Z,21.80
2018-09-09T17:57:42.380Z,21.70
2018-09-09T18:00:12.316Z,21.50
2018-09-09T18:02:40.758Z,21.50
2018-09-09T18:05:09.753Z,21.40
2018-09-09T18:07:38.203Z,21.30
2018-09-09T18:10:07.053Z,21.20
2018-09-09T18:12:35.595Z,21.10
2018-09-09T18:15:04.116Z,21.00
2018-09-09T18:17:32.591Z,20.90
2018-09-09T18:20:00.970Z,20.80
2018-09-09T18:22:29.395Z,20.70
2018-09-09T18:25:04.804Z,20.70
2018-09-09T18:27:33.229Z,20.60
2018-09-09T18:30:01.705Z,20.50
2018-09-09T18:32:30.083Z,20.50
2018-09-09T18:34:58.609Z,20.40
2018-09-09T18:37:27.011Z,20.40
2018-09-09T18:39:55.469Z,20.30
2018-09-09T18:42:23.869Z,20.30
2018-09-09T18:44:52.332Z,20.30
2018-09-09T18:47:21.159Z,20.20
2018-09-09T18:49:49.579Z,20.20
2018-09-09T18:52:17.966Z,20.20
2018-09-09T18:54:46.617Z,20.20
2018-09-09T18:57:15.162Z,20.20
2018-09-09T18:59:43.694Z,20.20
2018-09-09T19:02:12.177Z,20.20
2018-09-09T19:04:40.652Z,20.10
2018-09-09T19:07:09.131Z,20.10
2018-09-09T19:09:37.707Z,20.00
2018-09-09T19:12:06.143Z,19.90
2018-09-09T19:14:34.803Z,19.70
2018-09-09T19:17:03.391Z,19.70
2018-09-09T19:19:31.911Z,19.60
2018-09-09T19:22:00.616Z,19.50
2018-09-09T19:24:29.261Z,19.50
2018-09-09T19:26:57.772Z,19.40
2018-09-09T19:29:26.266Z,19.40
2018-09-09T19:31:54.868Z,19.30
2018-09-09T19:34:23.317Z,19.20
2018-09-09T19:36:51.833Z,19.10
2018-09-09T19:39:20.487Z,19.00
2018-09-09T19:41:48.997Z,18.90
2018-09-09T19:44:17.510Z,18.80
2018-09-09T19:46:46.074Z,18.70
2018-09-09T19:49:14.653Z,18.70
2018-09-09T19:51:43.173Z,18.60
2018-09-09T19:54:11.752Z,18.70
2018-09-09T19:56:40.511Z,18.70
2018-09-09T19:59:09.217Z,18.70
2018-09-09T20:01:37.768Z,18.70
2018-09-09T20:04:06.336Z,18.60
2018-09-09T20:06:35.096Z,18.50
2018-09-09T20:09:06.177Z,18.40
2018-09-09T20:11:34.668Z,18.30
2018-09-09T20:14:03.159Z,18.10
2018-09-09T20:16:31.631Z,18.00
2018-09-09T20:19:00.240Z,18.00
2018-09-09T20:21:28.850Z,17.90
2018-09-09T20:23:57.655Z,17.90
2018-09-09T20:26:26.247Z,17.90
2018-09-09T20:28:54.752Z,17.80
2018-09-09T20:31:23.333Z,17.80
2018-09-09T20:33:51.826Z,17.80
2018-09-09T20:36:20.329Z,17.90
2018-09-09T20:38:48.903Z,17.90
2018-09-09T20:41:17.351Z,17.90
2018-09-09T20:43:46.192Z,17.90
2018-09-09T20:46:21.953Z,17.80
2018-09-09T20:48:50.508Z,17.80
2018-09-09T20:51:19.156Z,17.80
2018-09-09T20:53:47.561Z,17.80
2018-09-09T20:56:15.987Z,17.80
2018-09-09T20:58:44.361Z,17.80
2018-09-09T21:01:12.759Z,17.80
2018-09-09T21:03:45.223Z,17.70
2018-09-09T21:06:13.602Z,17.70
2018-09-09T21:08:42.537Z,17.70
2018-09-09T21:11:11.501Z,17.70
2018-09-09T21:13:40.737Z,17.70
2018-09-09T21:16:09.412Z,17.60
2018-09-09T21:18:37.817Z,17.60
2018-09-09T21:21:07.143Z,17.60
2018-09-09T21:23:36.183Z,17.60
2018-09-09T21:26:05.309Z,17.60
2018-09-09T21:28:34.146Z,17.50
2018-09-09T21:31:03.797Z,17.50
2018-09-09T21:33:32.955Z,17.40
2018-09-09T21:36:03.159Z,17.30
2018-09-09T21:38:31.976Z,17.30
2018-09-09T21:41:02.883Z,17.30
2018-09-09T21:43:31.648Z,17.20
2018-09-09T21:46:00.102Z,17.20
2018-09-09T21:48:28.538Z,17.20
2018-09-09T21:50:57.030Z,17.10
2018-09-09T21:53:25.561Z,17.10
2018-09-09T21:55:54.365Z,17.10
2018-09-09T21:58:24.146Z,17.10
2018-09-09T22:00:57.735Z,17.00
2018-09-09T22:03:27.224Z,17.00
2018-09-09T22:05:57.939Z,16.90
2018-09-09T22:08:28.573Z,16.90
2018-09-09T22:10:57.102Z,16.90
2018-09-09T22:13:26.541Z,16.80
2018-09-09T22:15:54.997Z,16.80
2018-09-09T22:18:24.320Z,16.80
2018-09-09T22:20:52.996Z,16.80
2018-09-09T22:23:21.956Z,16.80
2018-09-09T22:25:50.419Z,16.80
2018-09-09T22:28:18.907Z,16.80
2018-09-09T22:30:47.312Z,16.70
2018-09-09T22:36:04.214Z,16.60
2018-09-09T22:38:32.794Z,16.60
2018-09-09T22:41:01.455Z,16.50
2018-09-09T22:43:29.904Z,16.50
2018-09-09T22:45:58.762Z,16.50
2018-09-09T22:48:27.874Z,16.50
2018-09-09T22:50:56.561Z,16.50
2018-09-09T22:53:27.769Z,16.40
2018-09-09T22:55:56.181Z,16.40
2018-09-09T22:58:24.738Z,16.40
2018-09-09T23:00:53.263Z,16.40
2018-09-09T23:03:22.746Z,16.30
2018-09-09T23:05:51.843Z,16.30
2018-09-09T23:08:20.367Z,16.20
2018-09-09T23:10:49.754Z,16.10
2018-09-09T23:13:18.211Z,16.10
2018-09-09T23:15:46.876Z,16.00
2018-09-09T23:18:15.488Z,16.00
2018-09-09T23:20:43.931Z,15.90
2018-09-09T23:23:12.411Z,15.90
2018-09-09T23:25:40.814Z,15.80
2018-09-09T23:28:09.287Z,15.70
2018-09-09T23:30:37.620Z,15.60
2018-09-09T23:33:05.666Z,15.60
2018-09-09T23:35:34.108Z,15.50
2018-09-09T23:38:02.545Z,15.50
2018-09-09T23:40:30.933Z,15.40
2018-09-09T23:42:59.328Z,15.30
2018-09-09T23:45:27.756Z,15.30
2018-09-09T23:47:56.188Z,15.20
2018-09-09T23:50:24.799Z,15.20
2018-09-09T23:52:53.203Z,15.10
2018-09-09T23:55:21.662Z,15.10
2018-09-09T23:57:50.236Z,15.00
